sensor_id;sensor_type;location;lat;lon;timestamp;pressure;altitude;pressure_sealevel;temperature;humidity
24045;BME280;26257;49.442;8.422;2022-08-19T00:01:44;100003.66;;;25.57;58.05
24045;BME280;26257;49.442;8.422;2022-08-19T00:04:12;100008.63;;;25.94;57.08
24045;BME280;26257;49.442;8.422;2022-08-19T00:06:38;99997.63;;;25.97;56.96
24045;BME280;26257;49.442;8.422;2022-08-19T00:09:08;99997.88;;;25.63;57.42
24045;BME280;26257;49.442;8.422;2022-08-19T00:11:35;99977.78;;;25.83;56.78
24045;BME280;26257;49.442;8.422;2022-08-19T00:14:03;99978.25;;;25.89;57.18
24045;BME280;26257;49.442;8.422;2022-08-19T00:16:29;99974.13;;;25.84;56.92
24045;BME280;26257;49.442;8.422;2022-08-19T00:18:54;99973.13;;;25.55;58.49
24045;BME280;26257;49.442;8.422;2022-08-19T00:21:24;99967.81;;;25.83;57.35
24045;BME280;26257;49.442;8.422;2022-08-19T00:23:51;99963.84;;;25.43;59.05
24045;BME280;26257;49.442;8.422;2022-08-19T00:26:17;99956.03;;;25.54;58.21
24045;BME280;26257;49.442;8.422;2022-08-19T00:28:42;99969.00;;;25.63;58.35
24045;BME280;26257;49.442;8.422;2022-08-19T00:31:08;99974.84;;;25.40;59.02
24045;BME280;26257;49.442;8.422;2022-08-19T00:33:34;99979.66;;;25.51;58.58
24045;BME280;26257;49.442;8.422;2022-08-19T00:36:05;99974.16;;;25.68;58.00
24045;BME280;26257;49.442;8.422;2022-08-19T00:38:32;99976.50;;;25.58;58.17
24045;BME280;26257;49.442;8.422;2022-08-19T00:40:57;99975.56;;;25.28;59.29
24045;BME280;26257;49.442;8.422;2022-08-19T00:43:26;99964.00;;;25.71;57.76
24045;BME280;26257;49.442;8.422;2022-08-19T00:45:52;99967.22;;;25.78;57.42
24045;BME280;26257;49.442;8.422;2022-08-19T00:48:19;99957.09;;;25.52;58.24
24045;BME280;26257;49.442;8.422;2022-08-19T00:50:47;99957.25;;;25.49;58.45
24045;BME280;26257;49.442;8.422;2022-08-19T00:53:16;99966.16;;;25.51;58.22
24045;BME280;26257;49.442;8.422;2022-08-19T00:55:48;99959.78;;;25.52;58.38
24045;BME280;26257;49.442;8.422;2022-08-19T00:58:16;99952.88;;;25.62;57.96
24045;BME280;26257;49.442;8.422;2022-08-19T01:00:42;99964.22;;;25.22;60.17
24045;BME280;26257;49.442;8.422;2022-08-19T01:03:13;99960.13;;;25.46;59.29
24045;BME280;26257;49.442;8.422;2022-08-19T01:05:41;99959.16;;;25.62;58.62
24045;BME280;26257;49.442;8.422;2022-08-19T01:08:08;99968.38;;;25.43;58.65
24045;BME280;26257;49.442;8.422;2022-08-19T01:10:39;99964.19;;;25.68;58.10
24045;BME280;26257;49.442;8.422;2022-08-19T01:13:05;99956.94;;;25.69;58.00
24045;BME280;26257;49.442;8.422;2022-08-19T01:15:45;99939.88;;;25.83;57.51
24045;BME280;26257;49.442;8.422;2022-08-19T01:18:13;99950.09;;;25.48;58.85
24045;BME280;26257;49.442;8.422;2022-08-19T01:20:41;99945.38;;;25.36;59.72
24045;BME280;26257;49.442;8.422;2022-08-19T01:23:07;99949.38;;;25.44;58.97
24045;BME280;26257;49.442;8.422;2022-08-19T01:25:45;99962.09;;;25.58;58.69
24045;BME280;26257;49.442;8.422;2022-08-19T01:28:17;99962.94;;;25.74;58.14
24045;BME280;26257;49.442;8.422;2022-08-19T01:30:43;99967.50;;;25.42;58.63
24045;BME280;26257;49.442;8.422;2022-08-19T01:33:09;99976.09;;;25.50;58.93
24045;BME280;26257;49.442;8.422;2022-08-19T01:35:35;99976.84;;;25.68;57.67
24045;BME280;26257;49.442;8.422;2022-08-19T01:38:04;99969.28;;;25.59;58.16
24045;BME280;26257;49.442;8.422;2022-08-19T01:40:34;99970.66;;;25.35;59.11
24045;BME280;26257;49.442;8.422;2022-08-19T01:43:00;99962.31;;;25.55;58.68
24045;BME280;26257;49.442;8.422;2022-08-19T01:45:28;99963.50;;;25.65;58.25
24045;BME280;26257;49.442;8.422;2022-08-19T01:47:54;99965.63;;;25.60;58.60
24045;BME280;26257;49.442;8.422;2022-08-19T01:50:20;99960.56;;;25.23;60.02
24045;BME280;26257;49.442;8.422;2022-08-19T01:52:46;99961.66;;;25.65;58.91
24045;BME280;26257;49.442;8.422;2022-08-19T01:55:15;99963.13;;;25.71;58.00
24045;BME280;26257;49.442;8.422;2022-08-19T01:57:42;99968.06;;;25.49;58.39
24045;BME280;26257;49.442;8.422;2022-08-19T02:00:11;99970.16;;;25.44;59.18
24045;BME280;26257;49.442;8.422;2022-08-19T02:02:38;99958.97;;;25.34;59.67
24045;BME280;26257;49.442;8.422;2022-08-19T02:05:03;99961.44;;;25.39;59.73
24045;BME280;26257;49.442;8.422;2022-08-19T02:07:29;99958.72;;;25.39;59.89
24045;BME280;26257;49.442;8.422;2022-08-19T02:09:54;99965.53;;;25.46;59.29
24045;BME280;26257;49.442;8.422;2022-08-19T02:12:21;99961.31;;;25.40;59.61
24045;BME280;26257;49.442;8.422;2022-08-19T02:14:46;99975.72;;;25.41;59.30
24045;BME280;26257;49.442;8.422;2022-08-19T02:17:12;99973.97;;;25.40;60.06
24045;BME280;26257;49.442;8.422;2022-08-19T02:19:37;99967.19;;;25.48;59.62
24045;BME280;26257;49.442;8.422;2022-08-19T02:22:03;99956.03;;;25.54;59.56
24045;BME280;26257;49.442;8.422;2022-08-19T02:24:29;99966.81;;;25.70;58.79
24045;BME280;26257;49.442;8.422;2022-08-19T02:26:55;99962.97;;;25.43;60.11
24045;BME280;26257;49.442;8.422;2022-08-19T02:29:20;99978.31;;;25.42;60.64
24045;BME280;26257;49.442;8.422;2022-08-19T02:31:46;99984.78;;;25.40;59.84
24045;BME280;26257;49.442;8.422;2022-08-19T02:34:12;99985.41;;;25.29;60.92
24045;BME280;26257;49.442;8.422;2022-08-19T02:36:37;99986.22;;;25.47;60.03
24045;BME280;26257;49.442;8.422;2022-08-19T02:39:03;99981.25;;;25.55;59.48
24045;BME280;26257;49.442;8.422;2022-08-19T02:41:31;99985.69;;;25.56;59.75
24045;BME280;26257;49.442;8.422;2022-08-19T02:43:58;99981.47;;;25.66;59.57
24045;BME280;26257;49.442;8.422;2022-08-19T02:46:28;99986.81;;;25.36;60.47
24045;BME280;26257;49.442;8.422;2022-08-19T03:19:33;99972.94;;;24.95;64.34
24045;BME280;26257;49.442;8.422;2022-08-19T03:21:58;99968.59;;;25.24;62.85
24045;BME280;26257;49.442;8.422;2022-08-19T03:24:24;99970.00;;;25.15;62.52
24045;BME280;26257;49.442;8.422;2022-08-19T03:26:54;99975.75;;;25.09;63.33
24045;BME280;26257;49.442;8.422;2022-08-19T03:29:25;99979.75;;;24.87;64.29
24045;BME280;26257;49.442;8.422;2022-08-19T03:31:50;99982.53;;;24.85;63.97
24045;BME280;26257;49.442;8.422;2022-08-19T03:34:37;99982.63;;;24.67;65.26
24045;BME280;26257;49.442;8.422;2022-08-19T03:37:06;99983.19;;;24.73;65.04
24045;BME280;26257;49.442;8.422;2022-08-19T03:39:32;99986.53;;;24.78;64.45
24045;BME280;26257;49.442;8.422;2022-08-19T03:41:57;99984.28;;;24.86;63.76
24045;BME280;26257;49.442;8.422;2022-08-19T03:44:25;99984.91;;;25.07;63.21
24045;BME280;26257;49.442;8.422;2022-08-19T03:46:53;99976.19;;;24.69;64.48
24045;BME280;26257;49.442;8.422;2022-08-19T03:49:21;99981.22;;;24.60;64.48
24045;BME280;26257;49.442;8.422;2022-08-19T03:51:48;99991.84;;;24.47;65.04
24045;BME280;26257;49.442;8.422;2022-08-19T03:54:19;99978.47;;;24.61;64.64
24045;BME280;26257;49.442;8.422;2022-08-19T03:56:47;99983.06;;;24.59;64.63
24045;BME280;26257;49.442;8.422;2022-08-19T03:59:24;99994.22;;;24.53;64.99
24045;BME280;26257;49.442;8.422;2022-08-19T04:01:52;99993.13;;;24.73;63.65
24045;BME280;26257;49.442;8.422;2022-08-19T04:04:18;99991.38;;;24.39;65.68
24045;BME280;26257;49.442;8.422;2022-08-19T04:06:43;99996.31;;;24.81;64.02
24045;BME280;26257;49.442;8.422;2022-08-19T04:09:10;100000.50;;;25.02;62.88
24045;BME280;26257;49.442;8.422;2022-08-19T04:11:45;99992.81;;;24.79;63.27
24045;BME280;26257;49.442;8.422;2022-08-19T04:14:13;99990.16;;;24.77;63.44
24045;BME280;26257;49.442;8.422;2022-08-19T04:16:39;100003.13;;;24.38;64.79
24045;BME280;26257;49.442;8.422;2022-08-19T04:19:05;99995.19;;;24.68;63.75
24045;BME280;26257;49.442;8.422;2022-08-19T04:21:32;99995.91;;;24.71;63.77
24045;BME280;26257;49.442;8.422;2022-08-19T04:23:58;99986.09;;;24.86;63.16
24045;BME280;26257;49.442;8.422;2022-08-19T04:26:27;99985.75;;;24.59;64.42
24045;BME280;26257;49.442;8.422;2022-08-19T04:28:54;99987.53;;;24.76;63.29
24045;BME280;26257;49.442;8.422;2022-08-19T04:31:26;99980.19;;;24.62;63.56
24045;BME280;26257;49.442;8.422;2022-08-19T04:33:57;99979.75;;;24.54;63.55
24045;BME280;26257;49.442;8.422;2022-08-19T04:36:25;99982.31;;;24.73;63.44
24045;BME280;26257;49.442;8.422;2022-08-19T04:38:54;99990.16;;;24.77;62.99
24045;BME280;26257;49.442;8.422;2022-08-19T04:41:20;99990.78;;;24.82;62.61
24045;BME280;26257;49.442;8.422;2022-08-19T04:44:04;99986.44;;;24.80;62.61
24045;BME280;26257;49.442;8.422;2022-08-19T04:46:30;99989.38;;;24.75;63.32
24045;BME280;26257;49.442;8.422;2022-08-19T04:48:57;99983.28;;;24.39;64.31
24045;BME280;26257;49.442;8.422;2022-08-19T04:51:23;99980.22;;;24.78;62.77
24045;BME280;26257;49.442;8.422;2022-08-19T04:53:48;99988.75;;;24.70;62.90
24045;BME280;26257;49.442;8.422;2022-08-19T04:56:16;99982.19;;;24.91;61.96
24045;BME280;26257;49.442;8.422;2022-08-19T04:58:43;99991.78;;;25.12;61.23
24045;BME280;26257;49.442;8.422;2022-08-19T05:01:12;99999.63;;;25.01;61.21
24045;BME280;26257;49.442;8.422;2022-08-19T05:03:38;99997.69;;;24.88;61.94
24045;BME280;26257;49.442;8.422;2022-08-19T05:06:09;100004.53;;;25.26;60.62
24045;BME280;26257;49.442;8.422;2022-08-19T05:08:36;99986.47;;;25.27;60.38
24045;BME280;26257;49.442;8.422;2022-08-19T05:11:09;99989.72;;;25.17;60.40
24045;BME280;26257;49.442;8.422;2022-08-19T05:13:35;99987.28;;;25.13;59.98
24045;BME280;26257;49.442;8.422;2022-08-19T05:16:00;100001.03;;;25.08;61.07
24045;BME280;26257;49.442;8.422;2022-08-19T05:18:25;100003.81;;;25.23;60.52
24045;BME280;26257;49.442;8.422;2022-08-19T05:21:11;100019.00;;;25.09;60.70
24045;BME280;26257;49.442;8.422;2022-08-19T05:23:56;100019.72;;;25.13;60.98
24045;BME280;26257;49.442;8.422;2022-08-19T05:26:22;100017.63;;;25.34;59.34
24045;BME280;26257;49.442;8.422;2022-08-19T05:28:47;100017.63;;;25.34;59.26
24045;BME280;26257;49.442;8.422;2022-08-19T05:31:12;100005.38;;;25.11;59.86
24045;BME280;26257;49.442;8.422;2022-08-19T05:33:39;100012.34;;;24.84;61.30
24045;BME280;26257;49.442;8.422;2022-08-19T05:36:05;100023.53;;;25.09;60.30
24045;BME280;26257;49.442;8.422;2022-08-19T05:38:35;100024.41;;;25.09;60.72
24045;BME280;26257;49.442;8.422;2022-08-19T05:41:06;100030.53;;;25.13;59.92
24045;BME280;26257;49.442;8.422;2022-08-19T05:43:33;100024.41;;;25.09;60.22
24045;BME280;26257;49.442;8.422;2022-08-19T05:45:58;100032.53;;;25.25;60.42
24045;BME280;26257;49.442;8.422;2022-08-19T05:48:23;100033.28;;;25.27;59.99
24045;BME280;26257;49.442;8.422;2022-08-19T05:50:49;100040.75;;;25.55;58.98
24045;BME280;26257;49.442;8.422;2022-08-19T05:53:16;100044.56;;;25.35;58.84
24045;BME280;26257;49.442;8.422;2022-08-19T05:55:41;100052.31;;;25.41;59.13
24045;BME280;26257;49.442;8.422;2022-08-19T05:58:07;100063.69;;;25.48;59.28
24045;BME280;26257;49.442;8.422;2022-08-19T06:00:34;100062.25;;;25.41;59.14
24045;BME280;26257;49.442;8.422;2022-08-19T06:02:59;100076.34;;;25.47;59.07
24045;BME280;26257;49.442;8.422;2022-08-19T06:05:31;100071.56;;;25.68;58.33
24045;BME280;26257;49.442;8.422;2022-08-19T06:07:58;100073.59;;;25.78;57.32
24045;BME280;26257;49.442;8.422;2022-08-19T06:10:26;100076.28;;;25.94;57.12
24045;BME280;26257;49.442;8.422;2022-08-19T06:12:52;100086.34;;;25.76;57.86
24045;BME280;26257;49.442;8.422;2022-08-19T06:15:18;100087.78;;;25.68;58.28
24045;BME280;26257;49.442;8.422;2022-08-19T06:17:43;100103.47;;;25.77;57.45
24045;BME280;26257;49.442;8.422;2022-08-19T06:20:14;100097.53;;;25.86;56.63
24045;BME280;26257;49.442;8.422;2022-08-19T06:22:40;100096.78;;;26.29;55.90
24045;BME280;26257;49.442;8.422;2022-08-19T06:25:07;100100.63;;;26.10;56.27
24045;BME280;26257;49.442;8.422;2022-08-19T06:27:34;100092.06;;;26.33;55.53
24045;BME280;26257;49.442;8.422;2022-08-19T06:30:00;100095.63;;;25.88;56.73
24045;BME280;26257;49.442;8.422;2022-08-19T06:32:26;100092.91;;;26.33;55.35
24045;BME280;26257;49.442;8.422;2022-08-19T06:34:51;100095.75;;;26.16;56.10
24045;BME280;26257;49.442;8.422;2022-08-19T06:37:16;100095.66;;;26.48;54.76
24045;BME280;26257;49.442;8.422;2022-08-19T06:39:43;100096.16;;;26.54;54.71
24045;BME280;26257;49.442;8.422;2022-08-19T06:42:11;100097.19;;;26.52;55.04
24045;BME280;26257;49.442;8.422;2022-08-19T06:44:42;100090.28;;;26.32;55.72
24045;BME280;26257;49.442;8.422;2022-08-19T06:47:10;100087.81;;;26.13;55.88
24045;BME280;26257;49.442;8.422;2022-08-19T06:49:36;100089.63;;;26.72;54.59
24045;BME280;26257;49.442;8.422;2022-08-19T06:52:03;100091.13;;;26.62;54.85
24045;BME280;26257;49.442;8.422;2022-08-19T06:54:29;100104.38;;;26.53;54.67
24045;BME280;26257;49.442;8.422;2022-08-19T06:56:55;100112.44;;;26.68;54.97
24045;BME280;26257;49.442;8.422;2022-08-19T06:59:23;100113.38;;;26.23;55.67
24045;BME280;26257;49.442;8.422;2022-08-19T07:01:53;100111.97;;;26.62;55.20
24045;BME280;26257;49.442;8.422;2022-08-19T07:04:25;100102.50;;;26.83;54.40
24045;BME280;26257;49.442;8.422;2022-08-19T07:06:56;100096.53;;;26.92;53.99
24045;BME280;26257;49.442;8.422;2022-08-19T07:09:22;100097.59;;;26.89;53.67
24045;BME280;26257;49.442;8.422;2022-08-19T07:11:50;100101.78;;;26.95;53.74
24045;BME280;26257;49.442;8.422;2022-08-19T07:14:20;100086.75;;;27.18;53.56
24045;BME280;26257;49.442;8.422;2022-08-19T07:16:49;100096.72;;;26.89;54.26
24045;BME280;26257;49.442;8.422;2022-08-19T07:19:16;100097.31;;;27.08;53.48
24045;BME280;26257;49.442;8.422;2022-08-19T07:21:42;100099.03;;;27.23;53.41
24045;BME280;26257;49.442;8.422;2022-08-19T07:24:08;100113.47;;;27.10;53.35
24045;BME280;26257;49.442;8.422;2022-08-19T07:26:39;100112.16;;;26.59;54.33
24045;BME280;26257;49.442;8.422;2022-08-19T07:29:05;100102.06;;;27.05;53.22
24045;BME280;26257;49.442;8.422;2022-08-19T07:31:31;100104.78;;;27.47;52.43
24045;BME280;26257;49.442;8.422;2022-08-19T07:34:03;100106.78;;;27.15;52.53
24045;BME280;26257;49.442;8.422;2022-08-19T07:36:32;100103.31;;;27.55;51.74
24045;BME280;26257;49.442;8.422;2022-08-19T07:39:00;100105.09;;;28.10;51.04
24045;BME280;26257;49.442;8.422;2022-08-19T07:41:28;100099.28;;;27.75;51.29
24045;BME280;26257;49.442;8.422;2022-08-19T07:43:54;100109.69;;;27.69;51.35
24045;BME280;26257;49.442;8.422;2022-08-19T07:46:20;100106.56;;;28.28;50.50
24045;BME280;26257;49.442;8.422;2022-08-19T07:48:47;100105.66;;;28.15;50.20
24045;BME280;26257;49.442;8.422;2022-08-19T07:51:17;100104.56;;;28.05;50.08
24045;BME280;26257;49.442;8.422;2022-08-19T07:53:43;100103.66;;;28.31;49.69
24045;BME280;26257;49.442;8.422;2022-08-19T07:56:11;100104.25;;;27.95;50.44
24045;BME280;26257;49.442;8.422;2022-08-19T07:58:41;100110.38;;;28.26;49.83
24045;BME280;26257;49.442;8.422;2022-08-19T08:01:08;100098.81;;;27.69;51.39
24045;BME280;26257;49.442;8.422;2022-08-19T08:03:35;100096.94;;;28.49;50.06
24045;BME280;26257;49.442;8.422;2022-08-19T08:06:19;100107.59;;;27.86;50.72
24045;BME280;26257;49.442;8.422;2022-08-19T08:09:04;100103.44;;;27.81;50.53
24045;BME280;26257;49.442;8.422;2022-08-19T08:11:41;100100.59;;;28.23;50.52
24045;BME280;26257;49.442;8.422;2022-08-19T08:14:08;100099.91;;;28.20;49.60
24045;BME280;26257;49.442;8.422;2022-08-19T08:16:40;100105.50;;;28.04;50.41
24045;BME280;26257;49.442;8.422;2022-08-19T08:19:07;100094.56;;;27.91;50.18
24045;BME280;26257;49.442;8.422;2022-08-19T08:21:33;100091.31;;;28.13;49.63
24045;BME280;26257;49.442;8.422;2022-08-19T08:23:59;100089.97;;;28.58;48.48
24045;BME280;26257;49.442;8.422;2022-08-19T08:26:24;100096.41;;;28.05;49.55
24045;BME280;26257;49.442;8.422;2022-08-19T08:28:51;100091.94;;;27.90;49.93
24045;BME280;26257;49.442;8.422;2022-08-19T08:31:17;100106.22;;;28.20;49.56
24045;BME280;26257;49.442;8.422;2022-08-19T08:33:45;100102.31;;;28.24;48.96
24045;BME280;26257;49.442;8.422;2022-08-19T08:36:11;100100.84;;;28.58;48.59
24045;BME280;26257;49.442;8.422;2022-08-19T08:38:38;100095.72;;;28.28;48.86
24045;BME280;26257;49.442;8.422;2022-08-19T08:41:12;100108.22;;;27.90;49.78
24045;BME280;26257;49.442;8.422;2022-08-19T08:43:45;100107.13;;;28.33;48.67
24045;BME280;26257;49.442;8.422;2022-08-19T08:46:26;100091.91;;;28.31;48.88
24045;BME280;26257;49.442;8.422;2022-08-19T09:09:29;100100.66;;;29.62;46.27
24045;BME280;26257;49.442;8.422;2022-08-19T09:12:06;100096.88;;;29.75;44.75
24045;BME280;26257;49.442;8.422;2022-08-19T09:17:08;100094.19;;;30.23;43.71
24045;BME280;26257;49.442;8.422;2022-08-19T09:22:15;100101.69;;;30.32;43.20
24045;BME280;26257;49.442;8.422;2022-08-19T09:24:41;100100.16;;;30.28;43.30
24045;BME280;26257;49.442;8.422;2022-08-19T09:27:06;100097.88;;;30.80;42.17
24045;BME280;26257;49.442;8.422;2022-08-19T09:29:31;100092.84;;;30.98;41.74
24045;BME280;26257;49.442;8.422;2022-08-19T09:31:57;100097.44;;;31.20;41.47
24045;BME280;26257;49.442;8.422;2022-08-19T09:34:22;100102.19;;;31.62;40.76
24045;BME280;26257;49.442;8.422;2022-08-19T09:36:49;100095.47;;;31.55;40.28
24045;BME280;26257;49.442;8.422;2022-08-19T09:39:20;100084.94;;;31.17;41.39
24045;BME280;26257;49.442;8.422;2022-08-19T09:41:46;100088.72;;;30.92;41.86
24045;BME280;26257;49.442;8.422;2022-08-19T09:44:11;100104.06;;;30.36;42.55
24045;BME280;26257;49.442;8.422;2022-08-19T09:46:38;100095.34;;;30.66;42.19
24045;BME280;26257;49.442;8.422;2022-08-19T09:49:03;100092.19;;;30.83;41.44
24045;BME280;26257;49.442;8.422;2022-08-19T09:51:31;100088.38;;;31.19;41.17
24045;BME280;26257;49.442;8.422;2022-08-19T09:54:03;100091.41;;;31.49;39.93
24045;BME280;26257;49.442;8.422;2022-08-19T09:56:28;100090.63;;;31.36;40.17
24045;BME280;26257;49.442;8.422;2022-08-19T09:58:57;100095.22;;;31.69;39.36
24045;BME280;26257;49.442;8.422;2022-08-19T10:01:25;100085.16;;;32.12;39.00
24045;BME280;26257;49.442;8.422;2022-08-19T10:03:54;100084.72;;;31.96;38.88
24045;BME280;26257;49.442;8.422;2022-08-19T10:06:22;100093.47;;;31.01;38.87
24045;BME280;26257;49.442;8.422;2022-08-19T10:08:48;100096.59;;;31.52;39.28
24045;BME280;26257;49.442;8.422;2022-08-19T10:11:14;100087.97;;;32.01;38.45
24045;BME280;26257;49.442;8.422;2022-08-19T10:13:42;100085.66;;;32.70;36.81
24045;BME280;26257;49.442;8.422;2022-08-19T10:16:14;100084.56;;;33.23;36.16
24045;BME280;26257;49.442;8.422;2022-08-19T10:18:41;100089.34;;;33.61;35.54
24045;BME280;26257;49.442;8.422;2022-08-19T10:21:18;100090.97;;;33.43;35.65
24045;BME280;26257;49.442;8.422;2022-08-19T10:23:48;100088.38;;;33.41;35.41
24045;BME280;26257;49.442;8.422;2022-08-19T10:26:19;100098.16;;;32.52;36.52
24045;BME280;26257;49.442;8.422;2022-08-19T10:28:46;100091.75;;;33.04;35.99
24045;BME280;26257;49.442;8.422;2022-08-19T10:31:15;100096.19;;;31.68;37.34
24045;BME280;26257;49.442;8.422;2022-08-19T10:33:41;100105.16;;;31.48;38.09
24045;BME280;26257;49.442;8.422;2022-08-19T10:36:13;100092.75;;;32.20;36.80
24045;BME280;26257;49.442;8.422;2022-08-19T10:38:42;100086.03;;;32.45;36.52
24045;BME280;26257;49.442;8.422;2022-08-19T10:41:10;100082.38;;;33.17;34.62
24045;BME280;26257;49.442;8.422;2022-08-19T10:43:36;100081.97;;;33.01;35.21
24045;BME280;26257;49.442;8.422;2022-08-19T10:46:05;100082.09;;;33.00;35.30
24045;BME280;26257;49.442;8.422;2022-08-19T10:48:31;100078.38;;;33.61;33.98
24045;BME280;26257;49.442;8.422;2022-08-19T10:50:57;100080.16;;;32.49;36.43
24045;BME280;26257;49.442;8.422;2022-08-19T10:53:41;100086.59;;;31.85;37.55
24045;BME280;26257;49.442;8.422;2022-08-19T10:56:07;100081.06;;;32.38;36.94
24045;BME280;26257;49.442;8.422;2022-08-19T10:58:50;100075.25;;;33.66;34.57
24045;BME280;26257;49.442;8.422;2022-08-19T11:01:16;100064.38;;;34.52;32.93
24045;BME280;26257;49.442;8.422;2022-08-19T11:03:41;100070.28;;;34.28;32.80
24045;BME280;26257;49.442;8.422;2022-08-19T11:06:08;100087.13;;;33.15;34.48
24045;BME280;26257;49.442;8.422;2022-08-19T11:08:35;100079.91;;;33.14;33.88
24045;BME280;26257;49.442;8.422;2022-08-19T11:11:03;100068.13;;;33.23;33.82
24045;BME280;26257;49.442;8.422;2022-08-19T11:13:30;100063.13;;;33.28;33.95
24045;BME280;26257;49.442;8.422;2022-08-19T11:16:11;100061.75;;;34.31;32.86
24045;BME280;26257;49.442;8.422;2022-08-19T11:18:42;100053.91;;;34.94;32.05
24045;BME280;26257;49.442;8.422;2022-08-19T11:23:47;100035.91;;;33.95;32.04
24045;BME280;26257;49.442;8.422;2022-08-19T11:26:14;100028.69;;;33.35;32.82
24045;BME280;26257;49.442;8.422;2022-08-19T11:28:40;100022.78;;;34.37;31.54
24045;BME280;26257;49.442;8.422;2022-08-19T11:31:13;100016.38;;;35.49;29.67
24045;BME280;26257;49.442;8.422;2022-08-19T11:33:39;100024.03;;;35.27;29.52
24045;BME280;26257;49.442;8.422;2022-08-19T11:36:05;100023.06;;;33.86;31.32
24045;BME280;26257;49.442;8.422;2022-08-19T11:38:30;100043.13;;;34.63;29.87
24045;BME280;26257;49.442;8.422;2022-08-19T11:40:58;100027.69;;;34.05;28.49
24045;BME280;26257;49.442;8.422;2022-08-19T11:43:24;100007.34;;;34.27;28.97
24045;BME280;26257;49.442;8.422;2022-08-19T11:45:51;100021.06;;;34.46;29.21
24045;BME280;26257;49.442;8.422;2022-08-19T11:48:17;100022.06;;;35.10;28.45
24045;BME280;26257;49.442;8.422;2022-08-19T11:50:47;100020.75;;;35.42;27.66
24045;BME280;26257;49.442;8.422;2022-08-19T11:53:12;100019.41;;;34.82;28.88
24045;BME280;26257;49.442;8.422;2022-08-19T11:55:38;100023.25;;;35.62;27.67
24045;BME280;26257;49.442;8.422;2022-08-19T11:58:05;100008.84;;;36.31;26.70
24045;BME280;26257;49.442;8.422;2022-08-19T12:00:32;100010.41;;;37.02;25.37
24045;BME280;26257;49.442;8.422;2022-08-19T12:03:00;100016.59;;;37.30;25.09
24045;BME280;26257;49.442;8.422;2022-08-19T12:05:26;100022.81;;;35.84;26.57
24045;BME280;26257;49.442;8.422;2022-08-19T12:07:51;100027.19;;;35.77;26.89
24045;BME280;26257;49.442;8.422;2022-08-19T12:10:17;100030.75;;;35.33;26.48
24045;BME280;26257;49.442;8.422;2022-08-19T12:12:42;100024.25;;;36.41;25.74
24045;BME280;26257;49.442;8.422;2022-08-19T12:15:11;100022.94;;;37.23;24.67
24045;BME280;26257;49.442;8.422;2022-08-19T12:17:37;100027.69;;;34.43;26.97
24045;BME280;26257;49.442;8.422;2022-08-19T12:20:04;100029.97;;;34.00;28.00
24045;BME280;26257;49.442;8.422;2022-08-19T12:22:30;100017.28;;;34.37;26.29
24045;BME280;26257;49.442;8.422;2022-08-19T12:24:55;100004.28;;;36.57;24.45
24045;BME280;26257;49.442;8.422;2022-08-19T12:27:21;100014.75;;;37.39;23.44
24045;BME280;26257;49.442;8.422;2022-08-19T12:29:47;100027.78;;;37.70;22.26
24045;BME280;26257;49.442;8.422;2022-08-19T12:32:12;100018.72;;;37.86;22.50
24045;BME280;26257;49.442;8.422;2022-08-19T12:34:38;100016.69;;;38.12;21.94
24045;BME280;26257;49.442;8.422;2022-08-19T12:37:05;100019.09;;;38.23;22.00
24045;BME280;26257;49.442;8.422;2022-08-19T12:39:40;100024.53;;;37.75;22.26
24045;BME280;26257;49.442;8.422;2022-08-19T12:42:07;100022.47;;;37.01;23.12
24045;BME280;26257;49.442;8.422;2022-08-19T12:44:34;100016.53;;;37.56;22.21
24045;BME280;26257;49.442;8.422;2022-08-19T12:47:00;100019.34;;;39.17;21.43
24045;BME280;26257;49.442;8.422;2022-08-19T12:49:30;100015.34;;;40.65;19.27
24045;BME280;26257;49.442;8.422;2022-08-19T12:52:01;100021.81;;;39.04;20.54
24045;BME280;26257;49.442;8.422;2022-08-19T12:54:27;100024.47;;;37.59;22.34
24045;BME280;26257;49.442;8.422;2022-08-19T12:56:52;100035.13;;;37.46;22.05
24045;BME280;26257;49.442;8.422;2022-08-19T12:59:18;100031.69;;;37.60;22.54
24045;BME280;26257;49.442;8.422;2022-08-19T13:01:44;100028.63;;;38.45;20.69
24045;BME280;26257;49.442;8.422;2022-08-19T13:04:10;100033.22;;;38.93;20.40
24045;BME280;26257;49.442;8.422;2022-08-19T13:06:36;100028.31;;;37.74;21.54
24045;BME280;26257;49.442;8.422;2022-08-19T13:09:03;100043.56;;;35.97;23.72
24045;BME280;26257;49.442;8.422;2022-08-19T13:11:28;100033.63;;;36.74;23.47
24045;BME280;26257;49.442;8.422;2022-08-19T13:13:57;100034.50;;;37.76;21.79
24045;BME280;26257;49.442;8.422;2022-08-19T13:16:23;100038.34;;;37.07;22.33
24045;BME280;26257;49.442;8.422;2022-08-19T13:18:49;100030.81;;;38.17;21.00
24045;BME280;26257;49.442;8.422;2022-08-19T13:21:17;100023.44;;;38.58;21.10
24045;BME280;26257;49.442;8.422;2022-08-19T13:23:45;100029.97;;;38.89;20.16
24045;BME280;26257;49.442;8.422;2022-08-19T13:26:11;100031.31;;;36.44;22.34
24045;BME280;26257;49.442;8.422;2022-08-19T13:28:40;100036.91;;;35.17;24.29
24045;BME280;26257;49.442;8.422;2022-08-19T13:31:25;100029.31;;;36.72;22.95
24045;BME280;26257;49.442;8.422;2022-08-19T13:34:10;100019.19;;;37.40;21.69
24045;BME280;26257;49.442;8.422;2022-08-19T13:36:36;100017.72;;;38.84;20.49
24045;BME280;26257;49.442;8.422;2022-08-19T13:39:03;100017.28;;;40.42;19.48
24045;BME280;26257;49.442;8.422;2022-08-19T13:41:29;100012.91;;;39.41;20.38
24045;BME280;26257;49.442;8.422;2022-08-19T13:43:55;100008.50;;;39.63;19.84
24045;BME280;26257;49.442;8.422;2022-08-19T13:46:21;100008.31;;;39.25;19.45
24045;BME280;26257;49.442;8.422;2022-08-19T13:48:47;100006.25;;;39.19;19.79
24045;BME280;26257;49.442;8.422;2022-08-19T13:51:16;100017.66;;;37.37;22.00
24045;BME280;26257;49.442;8.422;2022-08-19T13:53:43;100005.72;;;37.70;20.53
24045;BME280;26257;49.442;8.422;2022-08-19T13:56:12;99994.03;;;37.35;21.33